sensor_id;sensor_type;location;lat;lon;timestamp;P1;durP1;ratioP1;P2;durP2;ratioP2
1591;SDS011;789;51.612;7.510;2023-01-19T00:00:44;12.40;;;11.05;;
1591;SDS011;789;51.612;7.510;2023-01-19T00:03:11;14.48;;;11.07;;
1591;SDS011;789;51.612;7.510;2023-01-19T00:05:40;16.13;;;11.40;;
1591;SDS011;789;51.612;7.510;2023-01-19T00:08:07;14.52;;;11.65;;
1591;SDS011;789;51.612;7.510;2023-01-19T00:10:39;13.50;;;11.48;;
1591;SDS011;789;51.612;7.510;2023-01-19T00:13:06;15.75;;;12.02;;
1591;SDS011;789;51.612;7.510;2023-01-19T00:15:34;14.90;;;12.55;;
1591;SDS011;789;51.612;7.510;2023-01-19T00:18:01;16.08;;;12.38;;
1591;SDS011;789;51.612;7.510;2023-01-19T00:20:28;17.27;;;12.20;;
1591;SDS011;789;51.612;7.510;2023-01-19T00:22:56;15.52;;;11.68;;
1591;SDS011;789;51.612;7.510;2023-01-19T00:25:23;17.58;;;11.00;;
1591;SDS011;789;51.612;7.510;2023-01-19T00:27:50;16.35;;;12.32;;
1591;SDS011;789;51.612;7.510;2023-01-19T00:30:17;16.75;;;12.02;;
1591;SDS011;789;51.612;7.510;2023-01-19T00:32:45;13.30;;;11.45;;
1591;SDS011;789;51.612;7.510;2023-01-19T00:35:11;16.30;;;10.75;;
1591;SDS011;789;51.612;7.510;2023-01-19T00:37:38;14.60;;;12.13;;
1591;SDS011;789;51.612;7.510;2023-01-19T00:40:05;15.50;;;11.32;;
1591;SDS011;789;51.612;7.510;2023-01-19T00:42:33;14.63;;;11.25;;
1591;SDS011;789;51.612;7.510;2023-01-19T00:45:06;14.45;;;11.90;;
1591;SDS011;789;51.612;7.510;2023-01-19T00:47:34;16.13;;;12.40;;
1591;SDS011;789;51.612;7.510;2023-01-19T00:50:02;15.48;;;12.13;;
1591;SDS011;789;51.612;7.510;2023-01-19T00:52:29;17.92;;;12.18;;
1591;SDS011;789;51.612;7.510;2023-01-19T00:54:56;17.35;;;12.82;;
1591;SDS011;789;51.612;7.510;2023-01-19T00:57:23;15.05;;;11.52;;
1591;SDS011;789;51.612;7.510;2023-01-19T00:59:51;14.82;;;12.13;;
1591;SDS011;789;51.612;7.510;2023-01-19T01:02:17;19.92;;;13.65;;
1591;SDS011;789;51.612;7.510;2023-01-19T01:04:44;19.13;;;13.40;;
1591;SDS011;789;51.612;7.510;2023-01-19T01:07:12;15.63;;;12.15;;
1591;SDS011;789;51.612;7.510;2023-01-19T01:09:39;13.20;;;11.35;;
1591;SDS011;789;51.612;7.510;2023-01-19T01:12:06;13.25;;;11.45;;
1591;SDS011;789;51.612;7.510;2023-01-19T01:14:33;13.15;;;11.43;;
1591;SDS011;789;51.612;7.510;2023-01-19T01:16:59;17.35;;;12.57;;
1591;SDS011;789;51.612;7.510;2023-01-19T01:19:26;16.52;;;11.98;;
1591;SDS011;789;51.612;7.510;2023-01-19T01:21:53;15.93;;;11.35;;
1591;SDS011;789;51.612;7.510;2023-01-19T01:24:21;13.20;;;11.80;;
1591;SDS011;789;51.612;7.510;2023-01-19T01:26:48;14.00;;;12.10;;
1591;SDS011;789;51.612;7.510;2023-01-19T01:29:15;15.90;;;11.05;;
1591;SDS011;789;51.612;7.510;2023-01-19T01:31:41;15.80;;;12.13;;
1591;SDS011;789;51.612;7.510;2023-01-19T01:34:08;13.82;;;11.10;;
1591;SDS011;789;51.612;7.510;2023-01-19T01:36:35;14.57;;;12.13;;
1591;SDS011;789;51.612;7.510;2023-01-19T01:39:02;15.60;;;12.65;;
1591;SDS011;789;51.612;7.510;2023-01-19T01:41:30;16.13;;;11.68;;
1591;SDS011;789;51.612;7.510;2023-01-19T01:43:57;17.88;;;11.60;;
1591;SDS011;789;51.612;7.510;2023-01-19T01:46:27;14.80;;;11.68;;
1591;SDS011;789;51.612;7.510;2023-01-19T01:48:56;14.73;;;11.25;;
1591;SDS011;789;51.612;7.510;2023-01-19T01:51:28;15.68;;;11.45;;
1591;SDS011;789;51.612;7.510;2023-01-19T01:54:04;13.82;;;11.07;;
1591;SDS011;789;51.612;7.510;2023-01-19T01:56:37;16.65;;;11.80;;
1591;SDS011;789;51.612;7.510;2023-01-19T01:59:06;14.43;;;11.35;;
1591;SDS011;789;51.612;7.510;2023-01-19T02:01:36;15.88;;;11.32;;
1591;SDS011;789;51.612;7.510;2023-01-19T02:04:21;13.25;;;10.57;;
1591;SDS011;789;51.612;7.510;2023-01-19T02:06:48;16.20;;;11.35;;
1591;SDS011;789;51.612;7.510;2023-01-19T02:09:33;13.85;;;10.73;;
1591;SDS011;789;51.612;7.510;2023-01-19T02:12:21;17.27;;;11.93;;
1591;SDS011;789;51.612;7.510;2023-01-19T02:15:12;16.67;;;11.40;;
1591;SDS011;789;51.612;7.510;2023-01-19T02:17:40;12.90;;;10.60;;
1591;SDS011;789;51.612;7.510;2023-01-19T02:20:07;13.27;;;10.90;;
1591;SDS011;789;51.612;7.510;2023-01-19T02:22:37;16.85;;;10.95;;
1591;SDS011;789;51.612;7.510;2023-01-19T02:25:10;15.65;;;11.30;;
1591;SDS011;789;51.612;7.510;2023-01-19T02:27:37;13.98;;;11.40;;
1591;SDS011;789;51.612;7.510;2023-01-19T02:30:04;12.27;;;10.50;;
1591;SDS011;789;51.612;7.510;2023-01-19T02:32:33;13.68;;;10.98;;
1591;SDS011;789;51.612;7.510;2023-01-19T02:35:00;16.67;;;11.55;;
1591;SDS011;789;51.612;7.510;2023-01-19T02:37:27;15.48;;;11.10;;
1591;SDS011;789;51.612;7.510;2023-01-19T02:39:59;15.73;;;11.68;;
1591;SDS011;789;51.612;7.510;2023-01-19T02:42:29;13.32;;;10.25;;
1591;SDS011;789;51.612;7.510;2023-01-19T02:45:00;16.25;;;11.20;;
1591;SDS011;789;51.612;7.510;2023-01-19T02:47:35;20.20;;;11.93;;
1591;SDS011;789;51.612;7.510;2023-01-19T02:50:04;17.23;;;11.05;;
1591;SDS011;789;51.612;7.510;2023-01-19T02:52:51;16.10;;;10.68;;
1591;SDS011;789;51.612;7.510;2023-01-19T02:55:22;16.45;;;11.63;;
1591;SDS011;789;51.612;7.510;2023-01-19T02:57:56;14.07;;;11.05;;
1591;SDS011;789;51.612;7.510;2023-01-19T03:00:32;13.13;;;11.10;;
1591;SDS011;789;51.612;7.510;2023-01-19T03:03:10;15.32;;;10.70;;
1591;SDS011;789;51.612;7.510;2023-01-19T03:05:51;17.58;;;10.85;;
1591;SDS011;789;51.612;7.510;2023-01-19T03:08:23;18.60;;;10.93;;
1591;SDS011;789;51.612;7.510;2023-01-19T03:10:59;19.55;;;11.10;;
1591;SDS011;789;51.612;7.510;2023-01-19T03:13:31;15.20;;;10.57;;
1591;SDS011;789;51.612;7.510;2023-01-19T03:16:09;13.65;;;10.45;;
1591;SDS011;789;51.612;7.510;2023-01-19T03:18:40;15.60;;;11.50;;
1591;SDS011;789;51.612;7.510;2023-01-19T03:21:11;17.75;;;11.57;;
1591;SDS011;789;51.612;7.510;2023-01-19T03:23:40;15.45;;;11.68;;
1591;SDS011;789;51.612;7.510;2023-01-19T03:26:10;15.60;;;10.52;;
1591;SDS011;789;51.612;7.510;2023-01-19T03:28:41;15.15;;;10.68;;
1591;SDS011;789;51.612;7.510;2023-01-19T03:31:12;15.63;;;11.55;;
1591;SDS011;789;51.612;7.510;2023-01-19T03:33:42;15.23;;;10.80;;
1591;SDS011;789;51.612;7.510;2023-01-19T03:36:13;16.45;;;10.65;;
1591;SDS011;789;51.612;7.510;2023-01-19T03:38:43;17.73;;;11.30;;
1591;SDS011;789;51.612;7.510;2023-01-19T03:41:12;13.57;;;10.25;;
1591;SDS011;789;51.612;7.510;2023-01-19T03:43:43;15.70;;;10.23;;
1591;SDS011;789;51.612;7.510;2023-01-19T03:46:14;12.60;;;9.93;;
1591;SDS011;789;51.612;7.510;2023-01-19T03:48:42;12.35;;;10.38;;
1591;SDS011;789;51.612;7.510;2023-01-19T03:51:10;20.63;;;11.02;;
1591;SDS011;789;51.612;7.510;2023-01-19T03:53:38;11.55;;;9.88;;
1591;SDS011;789;51.612;7.510;2023-01-19T03:56:05;13.32;;;10.07;;
1591;SDS011;789;51.612;7.510;2023-01-19T03:58:36;12.13;;;10.00;;
1591;SDS011;789;51.612;7.510;2023-01-19T04:01:04;14.65;;;9.77;;
1591;SDS011;789;51.612;7.510;2023-01-19T04:03:31;13.80;;;9.25;;
1591;SDS011;789;51.612;7.510;2023-01-19T04:05:58;12.10;;;9.35;;
1591;SDS011;789;51.612;7.510;2023-01-19T04:08:24;11.57;;;9.43;;
1591;SDS011;789;51.612;7.510;2023-01-19T04:10:51;15.10;;;10.60;;
1591;SDS011;789;51.612;7.510;2023-01-19T04:13:18;12.05;;;9.52;;
1591;SDS011;789;51.612;7.510;2023-01-19T04:15:45;13.07;;;9.73;;
1591;SDS011;789;51.612;7.510;2023-01-19T04:18:13;16.80;;;9.73;;
1591;SDS011;789;51.612;7.510;2023-01-19T04:20:40;11.13;;;8.70;;
1591;SDS011;789;51.612;7.510;2023-01-19T04:23:06;11.40;;;8.75;;
1591;SDS011;789;51.612;7.510;2023-01-19T04:25:33;13.60;;;9.77;;
1591;SDS011;789;51.612;7.510;2023-01-19T04:28:00;12.00;;;9.30;;
1591;SDS011;789;51.612;7.510;2023-01-19T04:30:26;10.50;;;8.60;;
1591;SDS011;789;51.612;7.510;2023-01-19T04:32:53;13.07;;;9.68;;
1591;SDS011;789;51.612;7.510;2023-01-19T04:35:21;17.90;;;8.90;;
1591;SDS011;789;51.612;7.510;2023-01-19T04:37:48;10.70;;;8.30;;
1591;SDS011;789;51.612;7.510;2023-01-19T04:40:15;15.95;;;9.10;;
1591;SDS011;789;51.612;7.510;2023-01-19T04:42:42;12.27;;;9.02;;
1591;SDS011;789;51.612;7.510;2023-01-19T04:45:10;11.27;;;9.02;;
1591;SDS011;789;51.612;7.510;2023-01-19T04:47:37;15.32;;;10.18;;
1591;SDS011;789;51.612;7.510;2023-01-19T04:50:04;15.57;;;9.30;;
1591;SDS011;789;51.612;7.510;2023-01-19T04:52:34;11.40;;;9.75;;
1591;SDS011;789;51.612;7.510;2023-01-19T04:55:01;15.98;;;10.95;;
1591;SDS011;789;51.612;7.510;2023-01-19T04:57:29;12.18;;;9.40;;
1591;SDS011;789;51.612;7.510;2023-01-19T04:59:56;14.77;;;11.20;;
1591;SDS011;789;51.612;7.510;2023-01-19T05:02:23;14.35;;;10.40;;
1591;SDS011;789;51.612;7.510;2023-01-19T05:04:50;13.02;;;9.93;;
1591;SDS011;789;51.612;7.510;2023-01-19T05:07:17;15.93;;;11.23;;
1591;SDS011;789;51.612;7.510;2023-01-19T05:09:45;14.93;;;11.57;;
1591;SDS011;789;51.612;7.510;2023-01-19T05:12:12;16.42;;;11.15;;
1591;SDS011;789;51.612;7.510;2023-01-19T05:14:38;18.55;;;12.05;;
1591;SDS011;789;51.612;7.510;2023-01-19T05:17:05;15.10;;;11.32;;
1591;SDS011;789;51.612;7.510;2023-01-19T05:19:32;18.58;;;12.85;;
1591;SDS011;789;51.612;7.510;2023-01-19T05:22:00;18.30;;;12.05;;
1591;SDS011;789;51.612;7.510;2023-01-19T05:24:28;16.38;;;11.60;;
1591;SDS011;789;51.612;7.510;2023-01-19T05:26:56;15.25;;;11.77;;
1591;SDS011;789;51.612;7.510;2023-01-19T05:29:23;18.92;;;11.63;;
1591;SDS011;789;51.612;7.510;2023-01-19T05:31:50;16.83;;;11.77;;
1591;SDS011;789;51.612;7.510;2023-01-19T05:34:17;17.50;;;11.52;;
1591;SDS011;789;51.612;7.510;2023-01-19T05:36:44;18.00;;;11.82;;
1591;SDS011;789;51.612;7.510;2023-01-19T05:39:10;16.83;;;11.55;;
1591;SDS011;789;51.612;7.510;2023-01-19T05:41:37;15.93;;;12.05;;
1591;SDS011;789;51.612;7.510;2023-01-19T05:44:07;17.35;;;11.95;;
1591;SDS011;789;51.612;7.510;2023-01-19T05:46:34;18.05;;;11.13;;
1591;SDS011;789;51.612;7.510;2023-01-19T05:49:01;15.05;;;11.40;;
1591;SDS011;789;51.612;7.510;2023-01-19T05:51:29;16.23;;;11.75;;
1591;SDS011;789;51.612;7.510;2023-01-19T05:53:59;14.70;;;10.60;;
1591;SDS011;789;51.612;7.510;2023-01-19T05:56:26;14.45;;;11.05;;
1591;SDS011;789;51.612;7.510;2023-01-19T05:58:53;15.57;;;11.68;;
1591;SDS011;789;51.612;7.510;2023-01-19T06:01:21;15.75;;;11.30;;
1591;SDS011;789;51.612;7.510;2023-01-19T06:03:48;16.52;;;10.90;;
1591;SDS011;789;51.612;7.510;2023-01-19T06:06:15;14.55;;;10.65;;
1591;SDS011;789;51.612;7.510;2023-01-19T06:08:41;15.05;;;10.98;;
1591;SDS011;789;51.612;7.510;2023-01-19T06:11:08;15.10;;;11.52;;
1591;SDS011;789;51.612;7.510;2023-01-19T06:13:35;14.43;;;10.88;;
1591;SDS011;789;51.612;7.510;2023-01-19T06:16:04;13.20;;;10.70;;
1591;SDS011;789;51.612;7.510;2023-01-19T06:18:32;12.90;;;9.68;;
1591;SDS011;789;51.612;7.510;2023-01-19T06:21:01;11.30;;;9.65;;
1591;SDS011;789;51.612;7.510;2023-01-19T06:23:34;15.60;;;10.40;;
1591;SDS011;789;51.612;7.510;2023-01-19T06:26:01;13.13;;;9.95;;
1591;SDS011;789;51.612;7.510;2023-01-19T06:28:28;10.57;;;9.43;;
1591;SDS011;789;51.612;7.510;2023-01-19T06:30:55;16.40;;;11.15;;
1591;SDS011;789;51.612;7.510;2023-01-19T06:33:22;14.75;;;11.02;;
1591;SDS011;789;51.612;7.510;2023-01-19T06:35:50;12.32;;;9.70;;
1591;SDS011;789;51.612;7.510;2023-01-19T06:38:17;11.77;;;9.57;;
1591;SDS011;789;51.612;7.510;2023-01-19T06:40:44;13.75;;;9.60;;
1591;SDS011;789;51.612;7.510;2023-01-19T06:43:16;14.52;;;10.25;;
1591;SDS011;789;51.612;7.510;2023-01-19T06:45:44;12.30;;;9.50;;
1591;SDS011;789;51.612;7.510;2023-01-19T06:48:10;11.80;;;9.45;;
1591;SDS011;789;51.612;7.510;2023-01-19T06:50:37;11.85;;;9.68;;
1591;SDS011;789;51.612;7.510;2023-01-19T06:53:06;15.15;;;11.13;;
1591;SDS011;789;51.612;7.510;2023-01-19T06:55:32;14.07;;;10.50;;
1591;SDS011;789;51.612;7.510;2023-01-19T06:58:00;12.18;;;9.70;;
1591;SDS011;789;51.612;7.510;2023-01-19T07:00:27;11.20;;;9.75;;
1591;SDS011;789;51.612;7.510;2023-01-19T07:02:54;14.13;;;10.68;;
1591;SDS011;789;51.612;7.510;2023-01-19T07:05:20;11.82;;;9.98;;
1591;SDS011;789;51.612;7.510;2023-01-19T07:07:51;12.15;;;10.38;;
1591;SDS011;789;51.612;7.510;2023-01-19T07:10:20;12.90;;;9.48;;
1591;SDS011;789;51.612;7.510;2023-01-19T07:12:47;11.70;;;9.55;;
1591;SDS011;789;51.612;7.510;2023-01-19T07:15:14;11.23;;;8.98;;
1591;SDS011;789;51.612;7.510;2023-01-19T07:17:43;11.93;;;10.13;;
1591;SDS011;789;51.612;7.510;2023-01-19T07:20:10;11.80;;;9.50;;
1591;SDS011;789;51.612;7.510;2023-01-19T07:22:38;12.32;;;9.40;;
1591;SDS011;789;51.612;7.510;2023-01-19T07:25:05;11.82;;;9.82;;
1591;SDS011;789;51.612;7.510;2023-01-19T07:27:34;11.68;;;9.95;;
1591;SDS011;789;51.612;7.510;2023-01-19T07:30:00;11.50;;;9.75;;
1591;SDS011;789;51.612;7.510;2023-01-19T07:32:28;11.90;;;10.00;;
1591;SDS011;789;51.612;7.510;2023-01-19T07:34:55;11.80;;;9.30;;
1591;SDS011;789;51.612;7.510;2023-01-19T07:37:22;12.98;;;9.77;;
1591;SDS011;789;51.612;7.510;2023-01-19T07:39:49;12.20;;;10.35;;
1591;SDS011;789;51.612;7.510;2023-01-19T07:42:15;11.93;;;9.65;;
1591;SDS011;789;51.612;7.510;2023-01-19T07:44:44;11.98;;;10.07;;
1591;SDS011;789;51.612;7.510;2023-01-19T07:47:10;13.80;;;10.65;;
1591;SDS011;789;51.612;7.510;2023-01-19T07:49:37;13.77;;;11.02;;
1591;SDS011;789;51.612;7.510;2023-01-19T07:52:04;14.68;;;11.82;;
1591;SDS011;789;51.612;7.510;2023-01-19T07:54:31;15.57;;;11.48;;
1591;SDS011;789;51.612;7.510;2023-01-19T07:56:58;13.57;;;11.50;;
1591;SDS011;789;51.612;7.510;2023-01-19T07:59:25;14.48;;;12.55;;
1591;SDS011;789;51.612;7.510;2023-01-19T08:01:55;15.20;;;12.80;;
1591;SDS011;789;51.612;7.510;2023-01-19T08:04:23;17.48;;;13.00;;
1591;SDS011;789;51.612;7.510;2023-01-19T08:06:50;14.43;;;11.80;;
1591;SDS011;789;51.612;7.510;2023-01-19T08:09:16;18.30;;;13.95;;
1591;SDS011;789;51.612;7.510;2023-01-19T08:11:43;20.08;;;13.43;;
1591;SDS011;789;51.612;7.510;2023-01-19T08:14:10;21.40;;;14.38;;
1591;SDS011;789;51.612;7.510;2023-01-19T08:16:38;18.45;;;14.13;;
1591;SDS011;789;51.612;7.510;2023-01-19T08:19:06;15.65;;;13.70;;
1591;SDS011;789;51.612;7.510;2023-01-19T08:21:33;21.90;;;16.10;;
1591;SDS011;789;51.612;7.510;2023-01-19T08:24:02;21.98;;;16.33;;
1591;SDS011;789;51.612;7.510;2023-01-19T08:26:29;20.02;;;14.73;;
1591;SDS011;789;51.612;7.510;2023-01-19T08:29:00;19.85;;;14.23;;
1591;SDS011;789;51.612;7.510;2023-01-19T08:31:28;21.45;;;15.65;;
1591;SDS011;789;51.612;7.510;2023-01-19T08:33:58;22.70;;;15.73;;
1591;SDS011;789;51.612;7.510;2023-01-19T08:36:26;25.27;;;16.33;;
1591;SDS011;789;51.612;7.510;2023-01-19T08:38:53;21.88;;;16.58;;
1591;SDS011;789;51.612;7.510;2023-01-19T08:41:19;25.88;;;16.17;;
1591;SDS011;789;51.612;7.510;2023-01-19T08:43:46;21.92;;;16.63;;
1591;SDS011;789;51.612;7.510;2023-01-19T08:46:13;23.70;;;16.00;;
1591;SDS011;789;51.612;7.510;2023-01-19T08:48:44;27.17;;;18.50;;
1591;SDS011;789;51.612;7.510;2023-01-19T08:51:12;26.40;;;15.35;;
1591;SDS011;789;51.612;7.510;2023-01-19T08:53:41;24.17;;;16.58;;
1591;SDS011;789;51.612;7.510;2023-01-19T08:56:08;24.77;;;17.13;;
1591;SDS011;789;51.612;7.510;2023-01-19T08:58:37;31.77;;;18.02;;
1591;SDS011;789;51.612;7.510;2023-01-19T09:01:06;26.38;;;16.83;;
1591;SDS011;789;51.612;7.510;2023-01-19T09:03:34;25.85;;;17.27;;
1591;SDS011;789;51.612;7.510;2023-01-19T09:06:01;27.15;;;17.42;;
1591;SDS011;789;51.612;7.510;2023-01-19T09:08:30;25.48;;;17.52;;
1591;SDS011;789;51.612;7.510;2023-01-19T09:10:59;26.48;;;17.38;;
1591;SDS011;789;51.612;7.510;2023-01-19T09:13:26;26.88;;;18.08;;
1591;SDS011;789;51.612;7.510;2023-01-19T09:15:53;27.70;;;17.80;;
1591;SDS011;789;51.612;7.510;2023-01-19T09:18:20;25.33;;;18.08;;
1591;SDS011;789;51.612;7.510;2023-01-19T09:20:48;27.02;;;18.77;;
1591;SDS011;789;51.612;7.510;2023-01-19T09:23:16;25.40;;;16.85;;
1591;SDS011;789;51.612;7.510;2023-01-19T09:25:45;30.65;;;18.77;;
1591;SDS011;789;51.612;7.510;2023-01-19T09:28:14;31.52;;;19.00;;
1591;SDS011;789;51.612;7.510;2023-01-19T09:30:42;25.77;;;18.48;;
1591;SDS011;789;51.612;7.510;2023-01-19T09:33:10;28.55;;;19.65;;
1591;SDS011;789;51.612;7.510;2023-01-19T09:35:38;26.88;;;19.63;;
1591;SDS011;789;51.612;7.510;2023-01-19T09:38:06;30.27;;;20.85;;
1591;SDS011;789;51.612;7.510;2023-01-19T09:40:33;33.95;;;21.48;;
1591;SDS011;789;51.612;7.510;2023-01-19T09:43:11;32.22;;;21.02;;
1591;SDS011;789;51.612;7.510;2023-01-19T09:45:43;37.83;;;22.10;;
1591;SDS011;789;51.612;7.510;2023-01-19T09:48:19;27.50;;;20.25;;
1591;SDS011;789;51.612;7.510;2023-01-19T09:50:53;29.15;;;21.13;;
1591;SDS011;789;51.612;7.510;2023-01-19T09:53:25;31.65;;;21.05;;
1591;SDS011;789;51.612;7.510;2023-01-19T09:56:08;33.80;;;21.20;;
1591;SDS011;789;51.612;7.510;2023-01-19T09:58:39;31.10;;;22.45;;
1591;SDS011;789;51.612;7.510;2023-01-19T10:01:06;34.38;;;21.58;;
1591;SDS011;789;51.612;7.510;2023-01-19T10:03:44;36.70;;;24.25;;
1591;SDS011;789;51.612;7.510;2023-01-19T10:06:11;34.67;;;23.42;;
1591;SDS011;789;51.612;7.510;2023-01-19T10:08:39;38.58;;;24.83;;
1591;SDS011;789;51.612;7.510;2023-01-19T10:11:15;35.30;;;22.27;;
1591;SDS011;789;51.612;7.510;2023-01-19T10:13:51;42.78;;;23.52;;
1591;SDS011;789;51.612;7.510;2023-01-19T10:16:22;40.85;;;25.20;;
1591;SDS011;789;51.612;7.510;2023-01-19T10:19:00;34.72;;;23.75;;
1591;SDS011;789;51.612;7.510;2023-01-19T10:21:37;37.67;;;24.95;;
1591;SDS011;789;51.612;7.510;2023-01-19T10:24:12;36.88;;;25.55;;
1591;SDS011;789;51.612;7.510;2023-01-19T10:26:44;40.72;;;24.55;;
1591;SDS011;789;51.612;7.510;2023-01-19T10:29:18;38.67;;;25.15;;
1591;SDS011;789;51.612;7.510;2023-01-19T10:31:51;39.33;;;24.67;;
1591;SDS011;789;51.612;7.510;2023-01-19T10:34:21;32.80;;;24.40;;
1591;SDS011;789;51.612;7.510;2023-01-19T10:36:48;37.20;;;25.35;;
1591;SDS011;789;51.612;7.510;2023-01-19T10:39:21;34.22;;;24.60;;
1591;SDS011;789;51.612;7.510;2023-01-19T10:41:49;35.33;;;23.90;;
1591;SDS011;789;51.612;7.510;2023-01-19T10:44:23;32.03;;;23.90;;
1591;SDS011;789;51.612;7.510;2023-01-19T10:46:50;34.83;;;24.13;;
1591;SDS011;789;51.612;7.510;2023-01-19T10:49:24;35.10;;;23.90;;
1591;SDS011;789;51.612;7.510;2023-01-19T10:51:52;34.85;;;23.20;;
1591;SDS011;789;51.612;7.510;2023-01-19T10:54:20;39.35;;;24.65;;
1591;SDS011;789;51.612;7.510;2023-01-19T10:56:49;31.90;;;25.15;;
1591;SDS011;789;51.612;7.510;2023-01-19T10:59:45;34.03;;;24.88;;
1591;SDS011;789;51.612;7.510;2023-01-19T11:02:15;40.50;;;26.25;;
1591;SDS011;789;51.612;7.510;2023-01-19T11:04:44;36.53;;;25.85;;
1591;SDS011;789;51.612;7.510;2023-01-19T11:07:14;61.50;;;26.05;;
1591;SDS011;789;51.612;7.510;2023-01-19T11:09:44;39.83;;;26.15;;
1591;SDS011;789;51.612;7.510;2023-01-19T11:12:15;36.75;;;25.30;;
1591;SDS011;789;51.612;7.510;2023-01-19T11:14:48;39.40;;;26.27;;
1591;SDS011;789;51.612;7.510;2023-01-19T11:17:17;36.92;;;25.83;;
1591;SDS011;789;51.612;7.510;2023-01-19T11:19:54;35.38;;;24.92;;
1591;SDS011;789;51.612;7.510;2023-01-19T11:22:24;41.75;;;25.88;;
1591;SDS011;789;51.612;7.510;2023-01-19T11:24:56;42.33;;;26.67;;
1591;SDS011;789;51.612;7.510;2023-01-19T11:27:24;33.38;;;24.30;;
1591;SDS011;789;51.612;7.510;2023-01-19T11:29:56;37.92;;;24.80;;
1591;SDS011;789;51.612;7.510;2023-01-19T11:32:33;38.08;;;26.15;;
1591;SDS011;789;51.612;7.510;2023-01-19T11:35:01;35.30;;;23.95;;
1591;SDS011;789;51.612;7.510;2023-01-19T11:37:51;32.67;;;25.65;;
1591;SDS011;789;51.612;7.510;2023-01-19T11:40:40;35.67;;;25.60;;
1591;SDS011;789;51.612;7.510;2023-01-19T11:43:12;37.90;;;27.13;;
1591;SDS011;789;51.612;7.510;2023-01-19T11:45:40;39.25;;;26.20;;
1591;SDS011;789;51.612;7.510;2023-01-19T11:48:09;38.70;;;26.00;;
1591;SDS011;789;51.612;7.510;2023-01-19T11:50:44;29.90;;;21.05;;
1591;SDS011;789;51.612;7.510;2023-01-19T11:53:13;25.65;;;20.60;;
1591;SDS011;789;51.612;7.510;2023-01-19T11:55:49;26.07;;;19.20;;
1591;SDS011;789;51.612;7.510;2023-01-19T11:58:20;23.70;;;17.50;;
1591;SDS011;789;51.612;7.510;2023-01-19T12:00:49;20.73;;;16.50;;
1591;SDS011;789;51.612;7.510;2023-01-19T12:03:21;23.57;;;17.90;;
1591;SDS011;789;51.612;7.510;2023-01-19T12:05:51;26.55;;;17.85;;
1591;SDS011;789;51.612;7.510;2023-01-19T12:08:22;25.27;;;18.57;;
1591;SDS011;789;51.612;7.510;2023-01-19T12:10:54;28.50;;;18.40;;
1591;SDS011;789;51.612;7.510;2023-01-19T12:13:24;29.43;;;20.17;;
1591;SDS011;789;51.612;7.510;2023-01-19T12:15:54;31.50;;;21.47;;
1591;SDS011;789;51.612;7.510;2023-01-19T12:18:27;30.77;;;21.07;;
1591;SDS011;789;51.612;7.510;2023-01-19T12:20:55;30.67;;;22.20;;
1591;SDS011;789;51.612;7.510;2023-01-19T12:23:26;31.47;;;22.33;;
1591;SDS011;789;51.612;7.510;2023-01-19T12:26:03;36.53;;;22.70;;
1591;SDS011;789;51.612;7.510;2023-01-19T12:28:45;49.28;;;22.83;;
1591;SDS011;789;51.612;7.510;2023-01-19T12:31:15;32.93;;;22.40;;
1591;SDS011;789;51.612;7.510;2023-01-19T12:33:43;34.50;;;24.25;;
1591;SDS011;789;51.612;7.510;2023-01-19T12:36:10;42.40;;;23.45;;
1591;SDS011;789;51.612;7.510;2023-01-19T12:39:00;37.25;;;22.20;;
1591;SDS011;789;51.612;7.510;2023-01-19T12:41:28;38.60;;;23.60;;
1591;SDS011;789;51.612;7.510;2023-01-19T12:46:47;37.05;;;23.48;;
1591;SDS011;789;51.612;7.510;2023-01-19T12:49:19;42.42;;;23.80;;
1591;SDS011;789;51.612;7.510;2023-01-19T12:51:50;32.47;;;21.75;;
1591;SDS011;789;51.612;7.510;2023-01-19T12:54:24;39.75;;;23.20;;
1591;SDS011;789;51.612;7.510;2023-01-19T12:56:56;39.35;;;25.17;;
1591;SDS011;789;51.612;7.510;2023-01-19T12:59:28;36.40;;;24.50;;
1591;SDS011;789;51.612;7.510;2023-01-19T13:08:13;41.88;;;23.73;;
1591;SDS011;789;51.612;7.510;2023-01-19T13:13:41;44.20;;;24.20;;
1591;SDS011;789;51.612;7.510;2023-01-19T13:19:17;36.00;;;24.13;;
1591;SDS011;789;51.612;7.510;2023-01-19T13:21:49;58.60;;;34.05;;
1591;SDS011;789;51.612;7.510;2023-01-19T13:24:20;45.10;;;27.63;;
1591;SDS011;789;51.612;7.510;2023-01-19T13:26:52;43.75;;;27.60;;
1591;SDS011;789;51.612;7.510;2023-01-19T13:29:24;48.17;;;26.53;;
1591;SDS011;789;51.612;7.510;2023-01-19T13:31:55;46.13;;;26.88;;
1591;SDS011;789;51.612;7.510;2023-01-19T13:34:27;43.63;;;26.13;;
1591;SDS011;789;51.612;7.510;2023-01-19T13:36:55;43.63;;;26.30;;
1591;SDS011;789;51.612;7.510;2023-01-19T13:39:26;41.08;;;26.85;;
1591;SDS011;789;51.612;7.510;2023-01-19T13:41:55;40.50;;;26.77;;
1591;SDS011;789;51.612;7.510;2023-01-19T13:44:25;43.47;;;25.40;;
1591;SDS011;789;51.612;7.510;2023-01-19T13:46:54;39.47;;;27.05;;
1591;SDS011;789;51.612;7.510;2023-01-19T13:49:25;45.50;;;28.13;;
1591;SDS011;789;51.612;7.510;2023-01-19T13:52:03;44.40;;;27.58;;
1591;SDS011;789;51.612;7.510;2023-01-19T13:54:46;46.97;;;27.77;;
1591;SDS011;789;51.612;7.510;2023-01-19T13:57:23;42.63;;;25.90;;
1591;SDS011;789;51.612;7.510;2023-01-19T14:00:05;50.25;;;28.60;;
1591;SDS011;789;51.612;7.510;2023-01-19T14:02:40;47.63;;;27.83;;
1591;SDS011;789;51.612;7.510;2023-01-19T14:05:19;44.75;;;27.80;;
1591;SDS011;789;51.612;7.510;2023-01-19T14:08:04;41.63;;;26.92;;
1591;SDS011;789;51.612;7.510;2023-01-19T14:10:39;43.42;;;25.10;;
1591;SDS011;789;51.612;7.510;2023-01-19T14:13:12;43.40;;;25.20;;
1591;SDS011;789;51.612;7.510;2023-01-19T14:15:41;44.05;;;25.60;;
1591;SDS011;789;51.612;7.510;2023-01-19T14:18:10;36.80;;;23.70;;
1591;SDS011;789;51.612;7.510;2023-01-19T14:20:51;44.22;;;23.33;;
1591;SDS011;789;51.612;7.510;2023-01-19T14:23:35;38.88;;;25.30;;
1591;SDS011;789;51.612;7.510;2023-01-19T14:29:14;41.63;;;24.02;;
1591;SDS011;789;51.612;7.510;2023-01-19T14:32:02;59.37;;;29.53;;
1591;SDS011;789;51.612;7.510;2023-01-19T14:34:38;41.85;;;22.52;;
1591;SDS011;789;51.612;7.510;2023-01-19T14:37:14;35.60;;;23.50;;
1591;SDS011;789;51.612;7.510;2023-01-19T14:39:47;38.22;;;23.17;;
1591;SDS011;789;51.612;7.510;2023-01-19T14:42:17;37.88;;;21.90;;
1591;SDS011;789;51.612;7.510;2023-01-19T14:44:48;41.55;;;22.77;;
1591;SDS011;789;51.612;7.510;2023-01-19T14:47:20;39.92;;;23.67;;
1591;SDS011;789;51.612;7.510;2023-01-19T14:49:53;37.80;;;22.00;;
1591;SDS011;789;51.612;7.510;2023-01-19T14:52:26;38.53;;;22.65;;
1591;SDS011;789;51.612;7.510;2023-01-19T14:54:56;36.75;;;22.70;;
1591;SDS011;789;51.612;7.510;2023-01-19T14:57:25;32.42;;;22.42;;
1591;SDS011;789;51.612;7.510;2023-01-19T14:59:52;36.88;;;21.65;;
1591;SDS011;789;51.612;7.510;2023-01-19T15:02:19;35.92;;;21.40;;
1591;SDS011;789;51.612;7.510;2023-01-19T15:04:46;32.78;;;21.85;;
1591;SDS011;789;51.612;7.510;2023-01-19T15:07:16;31.40;;;20.25;;
1591;SDS011;789;51.612;7.510;2023-01-19T15:09:44;32.23;;;20.50;;
1591;SDS011;789;51.612;7.510;2023-01-19T15:12:12;38.30;;;22.15;;
1591;SDS011;789;51.612;7.510;2023-01-19T15:14:41;45.53;;;22.70;;
1591;SDS011;789;51.612;7.510;2023-01-19T15:17:09;38.05;;;22.60;;
1591;SDS011;789;51.612;7.510;2023-01-19T15:19:49;38.63;;;24.30;;
1591;SDS011;789;51.612;7.510;2023-01-19T15:22:16;35.13;;;22.23;;
1591;SDS011;789;51.612;7.510;2023-01-19T15:24:43;39.13;;;23.50;;
1591;SDS011;789;51.612;7.510;2023-01-19T15:27:10;44.00;;;24.67;;
1591;SDS011;789;51.612;7.510;2023-01-19T15:29:37;39.92;;;24.38;;
1591;SDS011;789;51.612;7.510;2023-01-19T15:32:08;40.63;;;25.75;;
1591;SDS011;789;51.612;7.510;2023-01-19T15:34:38;36.88;;;24.80;;
1591;SDS011;789;51.612;7.510;2023-01-19T15:37:04;35.67;;;23.35;;